Time;durP1;ratioP1;P1;durP2;ratioP2;P2;SDS_P1;SDS_P2;PMS_P1;PMS_P2;Temp;Humidity;BMP_temperature;BMP_pressure;BME280_temperature;BME280_humidity;BME280_pressure;Samples;Min_cycle;Max_cycle;Signal;HPM_P1;HPM_P2
2022/09/06 00:01:56;;;;;;;3.13;2.80;;;21.60;34.50;;;;;;10527829;28;21032;-75
2022/09/06 00:06:59;;;;;;;2.90;2.70;;;21.50;34.00;;;;;;10527216;28;20228;-76
2022/09/06 00:12:04;;;;;;;2.90;2.70;;;21.50;34.30;;;;;;10526731;28;20608;-75
2022/09/06 00:17:07;;;;;;;3.67;2.87;;;21.50;34.40;;;;;;10527029;28;20255;-75
2022/09/06 00:22:10;;;;;;;2.37;2.27;;;21.40;34.10;;;;;;10526651;28;20671;-74
2022/09/06 00:27:15;;;;;;;3.00;2.80;;;21.30;34.20;;;;;;10527119;28;20234;-75
2022/09/06 00:32:18;;;;;;;3.10;2.90;;;21.30;34.70;;;;;;10526248;28;20810;-74
2022/09/06 00:37:21;;;;;;;2.60;2.50;;;21.30;34.40;;;;;;10526861;28;20235;-76
2022/09/06 00:42:27;;;;;;;4.97;3.20;;;21.20;34.30;;;;;;10525236;28;20231;-76
2022/09/06 00:47:30;;;;;;;3.20;2.90;;;21.20;35.00;;;;;;10526039;28;20216;-75
2022/09/06 00:52:34;;;;;;;3.13;2.83;;;21.10;34.60;;;;;;10526152;28;20229;-75
2022/09/06 00:57:39;;;;;;;3.07;2.87;;;21.00;34.60;;;;;;10524767;28;20241;-75
2022/09/06 01:02:43;;;;;;;3.00;2.80;;;21.00;35.30;;;;;;10520365;28;20232;-75
2022/09/06 01:07:58;;;;;;;2.67;2.47;;;21.00;34.80;;;;;;10524075;28;20314;-75
2022/09/06 01:13:11;;;;;;;2.90;2.70;;;20.90;35.30;;;;;;10524210;28;20777;-75
2022/09/06 01:18:27;;;;;;;3.63;3.40;;;20.90;35.40;;;;;;10524477;28;20234;-76
2022/09/06 01:24:04;;;;;;;2.60;2.50;;;20.90;35.80;;;;;;10524408;28;20227;-75
2022/09/06 01:29:14;;;;;;;3.67;3.40;;;20.90;35.40;;;;;;10524118;28;20228;-74
2022/09/06 01:34:24;;;;;;;3.10;2.90;;;20.80;35.70;;;;;;10524118;28;20234;-75
2022/09/06 01:39:29;;;;;;;3.83;3.50;;;20.70;35.50;;;;;;10524061;28;20228;-75
2022/09/06 01:44:35;;;;;;;3.57;3.37;;;20.60;35.40;;;;;;10523224;28;20234;-75
2022/09/06 01:49:52;;;;;;;3.73;3.20;;;20.50;35.50;;;;;;10523620;28;20755;-74
2022/09/06 01:55:07;;;;;;;3.73;2.93;;;20.50;35.90;;;;;;10522452;28;20719;-75
2022/09/06 02:00:14;;;;;;;3.60;3.30;;;20.40;36.10;;;;;;10523095;28;20229;-73
2022/09/06 02:05:24;;;;;;;3.47;3.07;;;20.40;35.90;;;;;;10523370;28;20227;-75
2022/09/06 02:10:32;;;;;;;3.23;3.03;;;20.30;36.30;;;;;;10522310;28;20227;-75
2022/09/06 02:15:40;;;;;;;3.53;3.33;;;20.30;36.00;;;;;;10521880;28;20229;-75
2022/09/06 02:20:49;;;;;;;3.53;3.33;;;20.30;36.00;;;;;;10522458;28;20232;-75
2022/09/06 02:25:57;;;;;;;3.50;3.30;;;20.20;36.70;;;;;;10522544;28;20241;-75
2022/09/06 02:31:09;;;;;;;3.53;3.33;;;20.20;35.90;;;;;;10522037;28;20254;-75
2022/09/06 02:36:13;;;;;;;3.00;2.80;;;20.10;36.60;;;;;;10521525;28;20258;-75
2022/09/06 02:41:21;;;;;;;3.37;3.17;;;20.10;35.70;;;;;;10522344;28;20226;-75
2022/09/06 02:46:25;;;;;;;3.40;3.00;;;20.00;36.50;;;;;;10522558;28;20242;-75
2022/09/06 02:51:29;;;;;;;3.47;3.20;;;20.00;36.30;;;;;;10521533;28;20923;-76
2022/09/06 02:56:35;;;;;;;3.07;2.87;;;20.00;35.80;;;;;;10522109;28;20236;-75
2022/09/06 03:01:39;;;;;;;3.10;2.90;;;20.00;35.90;;;;;;10521772;28;20250;-75
2022/09/06 03:06:43;;;;;;;2.90;2.70;;;20.00;36.50;;;;;;10524950;28;20238;-75
2022/09/06 03:11:46;;;;;;;3.83;3.63;;;19.90;35.90;;;;;;10529713;28;20238;-75
2022/09/06 03:16:50;;;;;;;4.07;3.77;;;19.90;36.40;;;;;;10528877;28;20235;-76
2022/09/06 03:21:54;;;;;;;4.10;3.63;;;19.80;36.30;;;;;;10529316;28;20314;-75
2022/09/06 03:26:57;;;;;;;4.50;4.20;;;19.70;36.20;;;;;;10529321;28;20611;-75
2022/09/06 03:32:02;;;;;;;5.17;3.57;;;19.70;36.20;;;;;;10530776;28;20238;-75
2022/09/06 03:37:05;;;;;;;3.37;3.17;;;19.60;36.20;;;;;;10535859;28;20219;-76
2022/09/06 03:42:09;;;;;;;4.27;3.87;;;19.50;36.10;;;;;;10535691;28;20643;-75
2022/09/06 03:47:13;;;;;;;3.10;2.90;;;19.50;36.10;;;;;;10535850;28;20236;-75
2022/09/06 03:52:21;;;;;;;3.30;3.10;;;19.50;36.10;;;;;;10535496;28;20660;-75
2022/09/06 03:57:24;;;;;;;3.40;3.07;;;19.30;35.90;;;;;;10534962;28;20225;-75
2022/09/06 04:02:29;;;;;;;3.30;3.10;;;19.30;36.00;;;;;;10535160;28;20234;-75
2022/09/06 04:07:32;;;;;;;3.80;3.50;;;19.30;36.80;;;;;;10534981;28;20582;-75
2022/09/06 04:12:35;;;;;;;3.70;3.50;;;19.20;36.40;;;;;;10534175;28;20239;-76
2022/09/06 04:17:44;;;;;;;4.17;3.87;;;19.20;36.10;;;;;;10533414;28;20223;-75
2022/09/06 04:22:47;;;;;;;3.63;3.33;;;19.20;37.30;;;;;;10534340;28;20232;-75
2022/09/06 04:27:50;;;;;;;3.37;3.17;;;19.20;36.30;;;;;;10534221;28;20228;-75
2022/09/06 04:32:55;;;;;;;3.40;3.20;;;19.10;36.30;;;;;;10533818;28;20240;-76
2022/09/06 04:38:00;;;;;;;3.33;3.13;;;19.00;36.90;;;;;;10533531;28;20231;-76
2022/09/06 04:43:04;;;;;;;4.50;4.20;;;19.00;37.20;;;;;;10533247;28;20239;-76
2022/09/06 04:48:08;;;;;;;4.30;3.90;;;18.90;36.70;;;;;;10533714;28;20226;-74
2022/09/06 04:53:11;;;;;;;4.53;4.13;;;19.00;37.30;;;;;;10533380;28;20235;-75
2022/09/06 04:58:15;;;;;;;4.63;4.27;;;18.90;37.00;;;;;;10533400;28;20232;-76
2022/09/06 05:03:19;;;;;;;5.33;4.83;;;19.00;37.10;;;;;;10532687;28;20240;-75
2022/09/06 05:08:22;;;;;;;4.67;4.30;;;18.90;37.70;;;;;;10533354;28;20227;-76
2022/09/06 05:13:26;;;;;;;4.07;3.77;;;19.00;37.40;;;;;;10533062;28;20238;-75
2022/09/06 05:18:30;;;;;;;4.30;3.90;;;19.00;37.30;;;;;;10533524;28;20219;-76
2022/09/06 05:23:33;;;;;;;3.70;3.47;;;18.90;37.90;;;;;;10532742;28;20223;-76
2022/09/06 05:28:37;;;;;;;4.27;3.97;;;18.90;37.60;;;;;;10533043;28;20589;-75
2022/09/06 05:33:41;;;;;;;4.03;3.70;;;18.90;37.70;;;;;;10532617;28;20688;-75
2022/09/06 05:38:44;;;;;;;3.93;3.63;;;18.90;38.20;;;;;;10532655;28;20600;-74
2022/09/06 05:43:48;;;;;;;5.60;5.10;;;18.90;37.90;;;;;;10532443;28;20238;-76
2022/09/06 05:48:58;;;;;;;4.60;4.20;;;18.90;38.30;;;;;;10532232;28;20755;-75
2022/09/06 05:54:01;;;;;;;6.33;5.50;;;18.80;39.30;;;;;;10530610;28;20708;-76
2022/09/06 05:59:04;;;;;;;6.87;6.37;;;18.90;38.80;;;;;;10527737;28;20306;-76
2022/09/06 06:04:09;;;;;;;8.17;7.57;;;18.90;39.10;;;;;;10526773;28;20253;-75
2022/09/06 06:09:13;;;;;;;9.17;8.23;;;18.90;40.10;;;;;;10528165;28;20719;-76
2022/09/06 06:14:16;;;;;;;9.87;8.53;;;18.90;39.90;;;;;;10530668;28;20238;-76
2022/09/06 06:19:21;;;;;;;8.27;7.57;;;19.00;40.20;;;;;;10530769;28;20228;-77
2022/09/06 06:24:24;;;;;;;9.00;8.20;;;19.10;41.40;;;;;;10530861;28;20254;-76
2022/09/06 06:29:27;;;;;;;9.13;8.23;;;19.20;41.20;;;;;;10532217;28;20219;-77
2022/09/06 06:34:32;;;;;;;9.47;8.77;;;19.30;41.50;;;;;;10533740;28;20253;-77
2022/09/06 06:39:35;;;;;;;9.47;8.67;;;19.40;42.80;;;;;;10533985;28;20230;-76
2022/09/06 06:44:38;;;;;;;10.93;9.83;;;19.60;42.20;;;;;;10542657;28;20239;-76
2022/09/06 06:49:43;;;;;;;10.80;9.70;;;19.80;42.50;;;;;;10541614;28;20223;-77
2022/09/06 06:54:48;;;;;;;10.13;9.33;;;19.90;43.50;;;;;;10541094;28;20234;-76
2022/09/06 06:59:51;;;;;;;9.50;8.70;;;20.10;42.80;;;;;;10540945;28;20223;-76
2022/09/06 07:04:55;;;;;;;10.57;9.77;;;20.30;42.80;;;;;;10540015;28;20228;-77
2022/09/06 07:09:59;;;;;;;9.53;8.70;;;20.40;43.90;;;;;;10540620;28;20254;-78
2022/09/06 07:15:22;;;;;;;10.07;9.37;;;20.60;43.00;;;;;;10545157;28;20747;-77
2022/09/06 07:20:27;;;;;;;9.40;8.53;;;20.80;43.10;;;;;;10533489;28;20235;-77
2022/09/06 07:25:32;;;;;;;9.70;9.00;;;20.90;43.80;;;;;;10532294;28;20231;-76
2022/09/06 07:30:36;;;;;;;9.50;8.73;;;21.10;43.00;;;;;;10532060;28;20226;-77
2022/09/06 07:35:41;;;;;;;10.00;8.80;;;21.20;43.10;;;;;;10537538;28;20232;-77
2022/09/06 07:40:53;;;;;;;9.30;8.50;;;21.40;43.30;;;;;;10537173;28;20933;-76
2022/09/06 07:46:05;;;;;;;8.23;7.43;;;21.50;44.00;;;;;;10537003;28;20228;-77
2022/09/06 07:51:12;;;;;;;7.63;7.07;;;21.60;43.80;;;;;;10537674;28;20231;-77
2022/09/06 07:56:17;;;;;;;7.43;6.83;;;21.70;43.30;;;;;;10537314;28;20316;-76
2022/09/06 08:01:30;;;;;;;7.30;6.80;;;21.80;42.70;;;;;;10535027;28;20957;-77
2022/09/06 08:06:36;;;;;;;7.33;6.67;;;21.90;43.60;;;;;;10530873;28;20227;-76
2022/09/06 08:12:05;;;;;;;6.47;5.97;;;22.00;43.40;;;;;;10531611;28;20306;-76
2022/09/06 08:17:08;;;;;;;5.80;5.30;;;22.10;43.30;;;;;;10533160;28;20863;-76
2022/09/06 08:22:13;;;;;;;5.10;4.70;;;22.30;43.10;;;;;;10533177;28;20236;-77
2022/09/06 08:27:16;;;;;;;4.83;4.40;;;22.50;43.80;;;;;;10534868;28;20246;-77
2022/09/06 08:32:19;;;;;;;5.30;4.90;;;22.70;42.30;;;;;;10534244;28;20228;-78
2022/09/06 08:37:24;;;;;;;4.47;4.17;;;22.90;42.20;;;;;;10537577;28;20219;-77
2022/09/06 08:42:27;;;;;;;4.93;4.50;;;23.10;42.40;;;;;;10537120;28;20632;-77
2022/09/06 08:47:40;;;;;;;4.80;4.40;;;23.40;42.30;;;;;;10539459;28;20230;-78
2022/09/06 08:52:59;;;;;;;4.10;3.80;;;23.60;41.90;;;;;;10537105;28;20319;-77
2022/09/06 08:58:35;;;;;;;4.30;4.00;;;23.90;41.70;;;;;;10534299;28;20664;-77
2022/09/06 09:03:40;;;;;;;4.50;4.20;;;24.30;41.00;;;;;;10535257;28;20231;-77
2022/09/06 09:08:53;;;;;;;4.27;3.97;;;24.50;40.50;;;;;;10542125;28;20252;-77
2022/09/06 09:14:02;;;;;;;4.07;3.77;;;24.70;40.60;;;;;;10537160;28;20244;-77
2022/09/06 09:19:09;;;;;;;4.03;3.63;;;25.00;40.90;;;;;;10537556;28;20228;-77
2022/09/06 09:24:15;;;;;;;3.77;3.37;;;25.20;39.70;;;;;;10536524;28;20239;-77
2022/09/06 09:29:20;;;;;;;3.80;3.50;;;25.50;39.50;;;;;;10532797;28;20228;-76
2022/09/06 09:34:34;;;;;;;3.40;3.20;;;25.70;39.60;;;;;;10542852;28;20233;-75
2022/09/06 09:39:40;;;;;;;3.70;3.30;;;25.90;38.90;;;;;;10544652;28;20219;-75
2022/09/06 09:44:44;;;;;;;3.30;3.10;;;25.90;38.70;;;;;;10540609;27;20229;-75
2022/09/06 09:49:49;;;;;;;3.63;3.10;;;26.10;38.60;;;;;;10556796;28;20222;-75
2022/09/06 09:54:57;;;;;;;3.40;3.10;;;26.20;38.40;;;;;;10564486;28;20257;-74
2022/09/06 10:00:00;;;;;;;3.33;3.13;;;26.30;37.80;;;;;;10547151;28;20227;-75
2022/09/06 10:05:08;;;;;;;3.20;3.00;;;26.50;38.20;;;;;;10551373;27;20229;-76
2022/09/06 10:10:20;;;;;;;3.83;3.30;;;26.70;37.70;;;;;;10560222;28;20227;-76
2022/09/06 10:15:33;;;;;;;3.03;2.83;;;26.90;37.00;;;;;;10546632;28;20230;-73
2022/09/06 10:20:42;;;;;;;3.17;2.97;;;27.10;36.40;;;;;;10550611;27;20222;-73
2022/09/06 10:25:47;;;;;;;3.53;3.27;;;27.40;36.00;;;;;;10560556;27;20231;-73
2022/09/06 10:31:02;;;;;;;3.30;3.00;;;27.60;35.90;;;;;;10561188;28;20229;-72
2022/09/06 10:36:06;;;;;;;2.60;2.40;;;27.80;36.00;;;;;;10565478;27;20286;-73
2022/09/06 10:41:34;;;;;;;2.67;2.47;;;28.00;35.60;;;;;;10562496;28;20221;-72
2022/09/06 10:46:41;;;;;;;3.03;2.40;;;28.10;34.90;;;;;;10562610;27;20233;-74
2022/09/06 10:51:49;;;;;;;2.67;2.57;;;28.20;35.40;;;;;;10554866;27;20272;-74
2022/09/06 10:56:58;;;;;;;2.33;2.20;;;28.40;34.50;;;;;;10558810;28;20240;-73
2022/09/06 11:02:12;;;;;;;2.50;2.30;;;28.50;33.90;;;;;;10560640;27;20220;-73
2022/09/06 11:07:24;;;;;;;2.40;2.30;;;28.60;33.80;;;;;;10564448;28;20211;-73
2022/09/06 11:12:34;;;;;;;2.67;2.47;;;28.80;33.10;;;;;;10544272;28;20238;-72
2022/09/06 11:17:43;;;;;;;4.47;2.70;;;28.90;32.90;;;;;;10555610;27;20226;-72
2022/09/06 11:23:23;;;;;;;2.70;2.50;;;28.90;32.20;;;;;;10562940;28;20227;-72
2022/09/06 11:28:33;;;;;;;2.50;2.30;;;28.90;33.10;;;;;;10538362;27;20719;-73
2022/09/06 11:33:38;;;;;;;2.80;2.20;;;29.00;32.70;;;;;;10564645;28;20226;-72
2022/09/06 11:38:42;;;;;;;2.47;2.30;;;29.10;33.30;;;;;;10569132;27;20234;-73
2022/09/06 11:43:49;;;;;;;2.70;2.50;;;29.20;32.80;;;;;;10560762;27;20231;-72
2022/09/06 11:49:03;;;;;;;2.60;2.40;;;29.30;31.70;;;;;;10544740;28;20231;-72
2022/09/06 11:54:25;;;;;;;2.50;2.20;;;29.40;31.90;;;;;;10563036;27;20231;-71
2022/09/06 11:59:36;;;;;;;2.47;2.17;;;29.50;31.20;;;;;;10564737;28;20239;-71
2022/09/06 12:05:10;;;;;;;2.43;2.23;;;29.60;30.70;;;;;;10550753;27;20741;-72
2022/09/06 12:10:49;;;;;;;2.53;1.93;;;29.60;31.30;;;;;;10567086;27;20219;-72
2022/09/06 12:15:55;;;;;;;3.27;2.30;;;29.60;31.30;;;;;;10558185;27;20250;-72
2022/09/06 12:21:03;;;;;;;5.93;2.30;;;29.70;31.30;;;;;;10569367;27;20211;-72
2022/09/06 12:26:07;;;;;;;2.10;2.00;;;29.70;31.10;;;;;;10566930;28;20215;-71
2022/09/06 12:31:30;;;;;;;3.83;1.90;;;29.70;31.40;;;;;;10559136;27;20219;-72
2022/09/06 12:36:34;;;;;;;4.13;2.10;;;29.70;31.30;;;;;;10562521;27;20237;-73
2022/09/06 12:41:40;;;;;;;4.17;1.90;;;29.70;31.20;;;;;;10555970;27;20241;-72
2022/09/06 12:46:50;;;;;;;4.97;2.00;;;29.80;31.00;;;;;;10548150;28;20234;-72
2022/09/06 12:52:06;;;;;;;3.97;2.03;;;29.80;30.30;;;;;;10563047;27;20901;-72
2022/09/06 12:57:14;;;;;;;6.00;2.17;;;29.80;30.80;;;;;;10558578;27;20251;-72
2022/09/06 13:02:23;;;;;;;3.23;2.33;;;29.80;30.20;;;;;;10565338;28;20230;-72
2022/09/06 13:07:30;;;;;;;3.27;2.43;;;29.80;30.30;;;;;;10564422;28;20219;-71
2022/09/06 13:12:35;;;;;;;4.10;2.20;;;29.80;30.90;;;;;;10535594;28;20727;-71
2022/09/06 13:17:40;;;;;;;3.07;2.20;;;29.80;30.70;;;;;;10556238;28;20355;-71
2022/09/06 13:22:45;;;;;;;3.87;2.40;;;29.90;30.30;;;;;;10545165;28;20287;-72
2022/09/06 13:27:50;;;;;;;3.90;2.23;;;29.80;30.10;;;;;;10562442;27;20229;-72
2022/09/06 13:32:54;;;;;;;2.67;2.47;;;29.90;31.10;;;;;;10566627;27;20238;-72
2022/09/06 13:38:19;;;;;;;3.43;2.33;;;29.80;30.40;;;;;;10554349;27;20755;-72
2022/09/06 13:43:24;;;;;;;2.90;2.40;;;29.90;30.30;;;;;;10557851;28;20223;-73
2022/09/06 13:48:28;;;;;;;4.53;2.60;;;30.00;30.10;;;;;;10564083;27;20234;-72
2022/09/06 13:53:31;;;;;;;4.50;2.60;;;30.00;30.00;;;;;;10547183;28;20229;-73
2022/09/06 13:58:34;;;;;;;3.33;2.17;;;30.10;29.70;;;;;;10551950;28;20227;-72
2022/09/06 14:03:41;;;;;;;5.10;2.20;;;30.10;29.90;;;;;;10538519;28;20235;-72
2022/09/06 14:08:45;;;;;;;3.23;2.50;;;30.10;29.30;;;;;;10545012;28;20231;-71
2022/09/06 14:14:08;;;;;;;3.33;2.30;;;30.10;29.50;;;;;;10554714;28;20230;-71
2022/09/06 14:19:13;;;;;;;3.30;2.20;;;30.10;29.60;;;;;;10551177;28;20227;-72
2022/09/06 14:24:16;;;;;;;4.60;2.50;;;30.10;29.30;;;;;;10541302;28;20227;-72
2022/09/06 14:29:19;;;;;;;3.70;2.30;;;30.10;29.70;;;;;;10560274;28;20226;-71
2022/09/06 14:34:24;;;;;;;4.70;2.30;;;30.20;29.70;;;;;;10563905;28;20235;-71
2022/09/06 14:39:28;;;;;;;3.37;2.30;;;30.30;29.30;;;;;;10545116;28;20220;-70
2022/09/06 14:44:31;;;;;;;3.37;2.00;;;30.30;29.60;;;;;;10542275;28;20285;-71
2022/09/06 14:49:36;;;;;;;4.33;2.60;;;30.40;28.90;;;;;;10553679;28;20223;-71
2022/09/06 14:54:39;;;;;;;4.17;2.40;;;30.50;28.80;;;;;;10554043;28;20238;-71
2022/09/06 14:59:42;;;;;;;3.77;2.40;;;30.50;29.00;;;;;;10559903;28;20223;-72
2022/09/06 15:04:47;;;;;;;5.77;2.60;;;30.50;29.10;;;;;;10547249;28;20233;-70
2022/09/06 15:09:51;;;;;;;4.27;2.53;;;30.50;28.90;;;;;;10564225;28;20222;-71
2022/09/06 15:14:54;;;;;;;6.20;2.30;;;30.50;29.00;;;;;;10558606;27;20223;-71
2022/09/06 15:19:59;;;;;;;3.10;2.33;;;30.40;28.70;;;;;;10558715;27;20230;-70
2022/09/06 15:25:03;;;;;;;3.90;2.30;;;30.50;28.40;;;;;;10559235;27;20216;-70
2022/09/06 15:30:07;;;;;;;4.57;2.20;;;30.50;28.50;;;;;;10560505;27;20229;-71
2022/09/06 15:35:12;;;;;;;3.83;2.17;;;30.40;28.40;;;;;;10566320;28;20222;-71
2022/09/06 15:40:15;;;;;;;4.37;2.27;;;30.40;28.30;;;;;;10559271;28;20226;-71
2022/09/06 15:45:18;;;;;;;6.93;2.20;;;30.30;28.50;;;;;;10559212;27;20269;-71
2022/09/06 15:50:24;;;;;;;5.33;2.10;;;30.30;28.60;;;;;;10558219;27;20819;-71
2022/09/06 15:55:55;;;;;;;4.57;2.30;;;30.30;28.40;;;;;;10547146;28;20234;-71
2022/09/06 16:01:04;;;;;;;6.10;1.93;;;30.30;28.50;;;;;;10569994;27;20596;-71
2022/09/06 16:06:11;;;;;;;2.27;1.93;;;30.20;26.80;;;;;;10574194;27;20220;-71
2022/09/06 16:11:34;;;;;;;2.60;1.80;;;30.20;26.70;;;;;;10558988;28;20326;-71
2022/09/06 16:16:39;;;;;;;2.40;1.70;;;30.10;27.20;;;;;;10564584;28;20774;-71
2022/09/06 16:21:44;;;;;;;3.77;1.83;;;30.10;27.20;;;;;;10542214;28;20232;-71
2022/09/06 16:26:47;;;;;;;2.93;1.80;;;30.00;26.90;;;;;;10566169;27;20226;-70
2022/09/06 16:31:55;;;;;;;1.90;1.70;;;30.00;27.40;;;;;;10574651;28;20243;-71
2022/09/06 16:37:06;;;;;;;2.63;1.70;;;29.90;27.40;;;;;;10564393;27;20237;-70
2022/09/06 16:42:09;;;;;;;3.87;1.70;;;29.90;26.90;;;;;;10553541;28;20231;-70
2022/09/06 16:47:13;;;;;;;2.60;1.50;;;29.90;27.30;;;;;;10544200;28;20227;-70
2022/09/06 16:52:20;;;;;;;4.43;2.00;;;29.90;27.30;;;;;;10561879;27;20234;-70
2022/09/06 16:57:24;;;;;;;2.63;2.10;;;29.80;27.40;;;;;;10533293;28;20231;-70
2022/09/06 17:02:27;;;;;;;3.87;2.53;;;29.80;27.90;;;;;;10533041;28;20228;-70
2022/09/06 17:07:32;;;;;;;2.70;2.23;;;29.80;28.00;;;;;;10524205;28;20617;-71
2022/09/06 17:12:35;;;;;;;3.97;1.93;;;29.70;28.30;;;;;;10552484;27;20754;-71
2022/09/06 17:17:38;;;;;;;4.83;2.27;;;29.60;28.20;;;;;;10557822;28;20581;-71
2022/09/06 17:22:43;;;;;;;3.93;2.10;;;29.50;28.40;;;;;;10532943;28;20236;-71
2022/09/06 17:27:46;;;;;;;3.00;2.13;;;29.40;28.20;;;;;;10531933;28;20238;-71
2022/09/06 17:32:50;;;;;;;2.37;1.90;;;29.30;28.40;;;;;;10552081;27;20234;-73
2022/09/06 17:37:54;;;;;;;3.67;2.10;;;29.20;28.70;;;;;;10559499;27;20226;-74
2022/09/06 17:42:58;;;;;;;4.13;2.10;;;29.10;28.60;;;;;;10558279;28;20227;-74
2022/09/06 17:48:01;;;;;;;2.60;2.10;;;29.00;28.70;;;;;;10558910;27;20227;-72
2022/09/06 17:53:05;;;;;;;2.90;2.40;;;28.90;28.90;;;;;;10558444;28;21019;-71
2022/09/06 17:58:09;;;;;;;2.20;2.00;;;28.80;29.00;;;;;;10558574;28;20230;-74
2022/09/06 18:03:12;;;;;;;5.43;2.47;;;28.70;29.00;;;;;;10559828;28;20231;-75
2022/09/06 18:08:17;;;;;;;4.03;2.30;;;28.60;29.40;;;;;;10554476;28;20589;-75
2022/09/06 18:13:20;;;;;;;2.63;2.30;;;28.50;29.80;;;;;;10556764;28;20231;-74
2022/09/06 18:18:24;;;;;;;2.37;2.17;;;28.40;29.70;;;;;;10558007;27;20227;-73
2022/09/06 18:23:30;;;;;;;3.63;2.40;;;28.30;29.70;;;;;;10556863;27;20256;-73
2022/09/06 18:28:37;;;;;;;4.70;3.07;;;28.20;30.30;;;;;;10557120;27;20225;-73
2022/09/06 18:33:41;;;;;;;4.37;2.70;;;28.20;30.40;;;;;;10555482;28;20231;-74
2022/09/06 18:38:46;;;;;;;3.50;2.97;;;28.00;30.20;;;;;;10554848;27;20227;-73
2022/09/06 18:43:50;;;;;;;4.23;2.90;;;27.80;30.10;;;;;;10554332;27;20671;-74
2022/09/06 18:48:54;;;;;;;3.70;3.20;;;27.70;30.00;;;;;;10557578;28;20306;-74
2022/09/06 18:53:59;;;;;;;3.67;3.10;;;27.30;30.10;;;;;;10552564;28;20218;-74
2022/09/06 18:59:04;;;;;;;4.10;3.10;;;27.30;31.00;;;;;;10554691;28;20226;-74
2022/09/06 19:04:07;;;;;;;2.83;2.63;;;27.20;31.00;;;;;;10552439;28;20216;-73
2022/09/06 19:09:14;;;;;;;3.60;2.93;;;27.00;30.90;;;;;;10551363;28;20234;-73
2022/09/06 19:14:17;;;;;;;6.63;3.03;;;27.00;31.80;;;;;;10556892;28;20230;-73
2022/09/06 19:19:22;;;;;;;5.27;3.50;;;26.90;31.40;;;;;;10554468;28;20227;-73
2022/09/06 19:24:26;;;;;;;5.27;4.73;;;26.80;31.50;;;;;;10555514;28;20595;-72
2022/09/06 19:29:30;;;;;;;5.53;4.77;;;26.80;32.30;;;;;;10553265;27;20592;-73
2022/09/06 19:34:34;;;;;;;6.47;4.97;;;26.60;31.80;;;;;;10550412;28;20223;-74
2022/09/06 19:39:38;;;;;;;7.20;6.53;;;26.50;32.00;;;;;;10552426;28;20223;-73
2022/09/06 19:44:42;;;;;;;7.70;6.60;;;26.40;32.40;;;;;;10555070;28;20227;-73
2022/09/06 19:49:46;;;;;;;8.20;5.80;;;26.20;32.20;;;;;;10556842;28;20223;-74
2022/09/06 19:54:52;;;;;;;5.57;5.07;;;26.10;32.30;;;;;;10562512;28;20223;-73
2022/09/06 19:59:55;;;;;;;5.63;4.97;;;25.90;32.70;;;;;;10557802;27;20296;-73
2022/09/06 20:04:59;;;;;;;5.33;4.83;;;26.00;32.70;;;;;;10559565;28;20233;-73
2022/09/06 20:10:05;;;;;;;4.97;4.30;;;25.90;32.60;;;;;;10558204;27;20343;-73
2022/09/06 20:15:09;;;;;;;4.10;3.80;;;25.80;33.20;;;;;;10558954;27;20227;-72
2022/09/06 20:20:13;;;;;;;4.00;3.63;;;25.70;33.10;;;;;;10558387;27;20230;-73
2022/09/06 20:25:18;;;;;;;6.23;4.50;;;25.70;32.90;;;;;;10556821;27;20227;-72
2022/09/06 20:30:21;;;;;;;4.47;4.13;;;25.60;33.60;;;;;;10554980;27;20237;-72
2022/09/06 20:35:25;;;;;;;6.63;4.10;;;25.40;32.90;;;;;;10560024;27;20230;-72
2022/09/06 20:40:29;;;;;;;4.70;4.30;;;25.10;33.30;;;;;;10558454;28;20231;-72
2022/09/06 20:45:33;;;;;;;4.07;3.63;;;25.00;34.40;;;;;;10559230;28;20733;-72
2022/09/06 20:50:37;;;;;;;5.73;5.00;;;24.90;33.90;;;;;;10558889;27;20229;-72
2022/09/06 20:55:43;;;;;;;5.83;4.60;;;24.90;34.30;;;;;;10559913;27;20234;-72
2022/09/06 21:00:46;;;;;;;5.67;4.77;;;24.80;34.50;;;;;;10557858;28;20229;-72
2022/09/06 21:05:49;;;;;;;5.07;4.50;;;24.60;34.20;;;;;;10558044;27;20226;-73
2022/09/06 21:11:00;;;;;;;5.67;4.27;;;24.40;34.30;;;;;;10556937;27;20234;-73
2022/09/06 21:16:04;;;;;;;5.30;4.80;;;24.30;35.40;;;;;;10558196;27;20322;-73
2022/09/06 21:21:08;;;;;;;4.87;4.40;;;24.10;34.80;;;;;;10558978;27;20299;-71
2022/09/06 21:26:14;;;;;;;5.40;3.90;;;23.90;35.30;;;;;;10560419;27;20598;-73
2022/09/06 21:31:20;;;;;;;6.47;4.20;;;23.80;35.60;;;;;;10546155;27;20223;-74
2022/09/06 21:36:28;;;;;;;6.13;4.53;;;23.80;35.60;;;;;;10546394;28;20226;-73
2022/09/06 21:41:34;;;;;;;5.60;5.00;;;23.80;35.60;;;;;;10550581;27;20223;-73
2022/09/06 21:46:38;;;;;;;7.40;5.30;;;23.70;36.10;;;;;;10552393;27;20219;-74
2022/09/06 21:51:42;;;;;;;5.20;4.70;;;23.60;35.90;;;;;;10554304;27;20219;-73
2022/09/06 21:56:47;;;;;;;6.47;4.93;;;23.50;35.60;;;;;;10550731;28;20223;-73
2022/09/06 22:01:53;;;;;;;4.90;4.03;;;23.30;36.30;;;;;;10550935;27;20325;-73
2022/09/06 22:06:56;;;;;;;5.60;4.83;;;23.30;36.10;;;;;;10554291;27;20288;-73
2022/09/06 22:12:01;;;;;;;5.00;4.50;;;23.20;36.20;;;;;;10553556;28;20231;-74
2022/09/06 22:17:05;;;;;;;5.23;4.73;;;23.10;36.70;;;;;;10553745;28;20216;-73
2022/09/06 22:22:08;;;;;;;5.40;4.87;;;23.10;36.30;;;;;;10553391;28;20330;-73
2022/09/06 22:27:13;;;;;;;6.07;4.73;;;23.00;36.20;;;;;;10551431;27;20301;-74
2022/09/06 22:32:16;;;;;;;5.77;4.70;;;22.80;36.70;;;;;;10550243;28;20928;-73
2022/09/06 22:37:20;;;;;;;7.23;5.40;;;22.70;36.60;;;;;;10546006;28;20227;-73
2022/09/06 22:42:24;;;;;;;5.20;4.70;;;22.60;36.90;;;;;;10553865;28;20238;-73
2022/09/06 22:47:28;;;;;;;5.53;4.70;;;22.60;37.50;;;;;;10549118;28;20235;-73
2022/09/06 22:52:31;;;;;;;5.40;4.90;;;22.50;37.10;;;;;;10544455;27;20995;-74
2022/09/06 22:57:35;;;;;;;5.30;4.80;;;22.40;37.10;;;;;;10546410;28;20238;-74
2022/09/06 23:02:39;;;;;;;6.37;4.87;;;22.30;37.70;;;;;;10547989;28;20679;-74
2022/09/06 23:07:42;;;;;;;5.27;4.87;;;22.30;37.40;;;;;;10545962;28;20586;-74
2022/09/06 23:12:47;;;;;;;5.37;4.87;;;22.20;37.30;;;;;;10547176;27;20717;-73
2022/09/06 23:17:50;;;;;;;5.33;4.73;;;22.20;38.00;;;;;;10546008;28;20634;-74
2022/09/06 23:22:53;;;;;;;4.97;4.43;;;22.10;37.40;;;;;;10553367;28;20243;-74
2022/09/06 23:27:59;;;;;;;4.33;3.93;;;22.00;37.40;;;;;;10555893;28;20227;-73
2022/09/06 23:33:03;;;;;;;5.20;4.50;;;21.90;38.20;;;;;;10553780;27;20234;-73
2022/09/06 23:38:06;;;;;;;4.70;4.30;;;21.90;38.20;;;;;;10557690;27;20812;-73
2022/09/06 23:43:10;;;;;;;4.80;4.40;;;21.90;38.20;;;;;;10551571;27;20228;-73
2022/09/06 23:48:14;;;;;;;4.60;4.20;;;21.90;38.20;;;;;;10557439;27;20222;-73
2022/09/06 23:53:18;;;;;;;4.30;3.90;;;21.90;38.20;;;;;;10556370;28;20725;-76
2022/09/06 23:58:22;;;;;;;4.07;3.77;;;21.90;38.20;;;;;;10556038;27;20250;-73
